Time;durP1;ratioP1;P1;durP2;ratioP2;P2;SDS_P1;SDS_P2;PMS_P1;PMS_P2;Temp;Humidity;BMP_temperature;BMP_pressure;BME280_temperature;BME280_humidity;BME280_pressure;Samples;Min_cycle;Max_cycle;Signal;HPM_P1;HPM_P2
2022/03/21 00:01:53;;;;;;;17.53;13.00;;;6.90;21.70;;;;;;5040675;28;20203;-65
2022/03/21 00:04:19;;;;;;;19.50;13.10;;;6.80;21.50;;;;;;5053834;28;20405;-65
2022/03/21 00:06:45;;;;;;;18.07;13.30;;;6.80;21.90;;;;;;5049756;28;20436;-61
2022/03/21 00:09:10;;;;;;;19.00;13.10;;;6.90;22.60;;;;;;5052734;28;20636;-61
2022/03/21 00:11:36;;;;;;;19.23;13.17;;;6.80;22.70;;;;;;5047590;28;20234;-64
2022/03/21 00:14:02;;;;;;;21.10;14.27;;;6.80;23.00;;;;;;5033410;28;20180;-60
2022/03/21 00:16:27;;;;;;;16.47;12.40;;;6.80;23.30;;;;;;5050244;28;20206;-60
2022/03/21 00:18:53;;;;;;;16.80;14.20;;;6.80;23.20;;;;;;5052817;28;20174;-65
2022/03/21 00:21:19;;;;;;;19.77;13.27;;;6.70;23.10;;;;;;5038255;28;20477;-65
2022/03/21 00:23:46;;;;;;;21.97;13.40;;;6.70;23.20;;;;;;5033381;28;20405;-65
2022/03/21 00:26:12;;;;;;;23.03;14.73;;;6.70;23.30;;;;;;5044925;28;20431;-64
2022/03/21 00:28:38;;;;;;;19.43;13.10;;;6.70;26.40;;;;;;5051375;28;20420;-59
2022/03/21 00:31:04;;;;;;;18.70;13.90;;;6.70;24.00;;;;;;5040523;28;20521;-60
2022/03/21 00:33:31;;;;;;;16.47;11.40;;;6.70;23.70;;;;;;5033421;28;20199;-63
2022/03/21 00:35:58;;;;;;;21.80;12.30;;;6.60;23.30;;;;;;5046727;28;20447;-65
2022/03/21 00:38:23;;;;;;;19.63;14.40;;;6.70;23.60;;;;;;5053414;28;20400;-60
2022/03/21 00:40:49;;;;;;;18.27;13.03;;;6.60;24.60;;;;;;5040212;28;20421;-60
2022/03/21 00:43:23;;;;;;;19.37;13.57;;;6.60;24.90;;;;;;5033552;28;20293;-60
2022/03/21 00:45:57;;;;;;;20.30;13.67;;;6.60;24.40;;;;;;5044906;28;20504;-61
2022/03/21 00:48:24;;;;;;;20.37;13.20;;;6.60;24.30;;;;;;5052884;28;20408;-60
2022/03/21 00:50:51;;;;;;;15.90;12.50;;;6.60;24.70;;;;;;5040704;28;20830;-65
2022/03/21 00:53:17;;;;;;;17.63;12.03;;;6.60;25.20;;;;;;5033300;28;20496;-64
2022/03/21 00:55:42;;;;;;;18.57;13.07;;;6.60;25.30;;;;;;5042869;28;20413;-59
2022/03/21 00:58:08;;;;;;;22.30;13.63;;;6.50;25.60;;;;;;5053280;28;20406;-59
2022/03/21 01:00:34;;;;;;;18.70;13.67;;;6.50;25.40;;;;;;5047606;28;20175;-60
2022/03/21 01:03:01;;;;;;;26.80;14.37;;;6.50;25.80;;;;;;5043660;28;20522;-64
2022/03/21 01:05:31;;;;;;;22.37;13.47;;;6.50;26.10;;;;;;5052784;28;20759;-61
2022/03/21 01:07:58;;;;;;;17.00;12.37;;;6.50;25.60;;;;;;5051935;28;20920;-60
2022/03/21 01:10:25;;;;;;;16.40;12.83;;;6.50;26.50;;;;;;5051709;28;20409;-60
2022/03/21 01:12:51;;;;;;;20.63;13.13;;;6.50;26.30;;;;;;5046951;28;20462;-61
2022/03/21 01:15:19;;;;;;;24.13;13.30;;;6.50;26.50;;;;;;5036889;28;20402;-60
2022/03/21 01:17:45;;;;;;;16.83;12.37;;;6.50;27.70;;;;;;5039925;28;20425;-60
2022/03/21 01:20:13;;;;;;;14.70;11.20;;;6.40;26.70;;;;;;5056054;28;20397;-60
2022/03/21 01:22:39;;;;;;;17.60;12.37;;;6.40;26.10;;;;;;5054455;28;20424;-60
2022/03/21 01:25:06;;;;;;;17.70;12.13;;;6.40;26.00;;;;;;5036453;28;20406;-61
2022/03/21 01:27:34;;;;;;;19.97;12.33;;;6.30;26.10;;;;;;5036822;28;20194;-61
2022/03/21 01:30:04;;;;;;;15.73;13.67;;;6.40;26.90;;;;;;5055759;28;20890;-59
2022/03/21 01:32:29;;;;;;;17.27;11.40;;;6.40;26.70;;;;;;5053352;28;20454;-60
2022/03/21 01:34:55;;;;;;;17.27;11.20;;;6.30;26.70;;;;;;5036624;28;20475;-65
2022/03/21 01:37:21;;;;;;;19.40;11.50;;;6.30;26.70;;;;;;5037761;28;20626;-64
2022/03/21 01:39:47;;;;;;;20.40;13.40;;;6.30;26.60;;;;;;5054316;28;20270;-61
2022/03/21 01:42:14;;;;;;;18.93;12.07;;;6.30;27.10;;;;;;5056108;28;20187;-65
2022/03/21 01:44:40;;;;;;;14.70;12.57;;;6.30;27.50;;;;;;5055868;28;20421;-64
2022/03/21 01:47:06;;;;;;;20.10;13.13;;;6.30;27.70;;;;;;5053193;28;20807;-65
2022/03/21 01:49:32;;;;;;;15.23;11.57;;;6.30;27.60;;;;;;5035780;28;20461;-63
2022/03/21 01:51:57;;;;;;;20.73;13.57;;;6.30;27.70;;;;;;5036130;28;20227;-64
2022/03/21 01:57:07;;;;;;;17.73;12.23;;;6.30;28.10;;;;;;5036846;28;20169;-60
2022/03/21 01:59:34;;;;;;;18.93;11.53;;;6.30;28.20;;;;;;5055410;28;20409;-60
2022/03/21 02:01:59;;;;;;;22.37;12.80;;;6.20;28.90;;;;;;5055529;28;20524;-65
2022/03/21 02:04:25;;;;;;;18.43;12.03;;;6.20;28.90;;;;;;5038881;28;20513;-59
2022/03/21 02:06:51;;;;;;;17.13;12.60;;;6.20;28.90;;;;;;5036326;28;20561;-64
2022/03/21 02:09:16;;;;;;;17.47;12.23;;;6.20;28.90;;;;;;5035542;28;20175;-65
2022/03/21 02:11:42;;;;;;;15.77;12.17;;;6.20;29.10;;;;;;5036019;28;20230;-60
2022/03/21 02:14:09;;;;;;;18.77;12.17;;;6.10;29.30;;;;;;5051546;28;20174;-64
2022/03/21 02:16:36;;;;;;;20.30;12.33;;;6.10;29.40;;;;;;5055467;28;20579;-65
2022/03/21 02:19:26;;;;;;;19.37;13.37;;;6.10;29.80;;;;;;5039925;28;20543;-61
2022/03/21 02:22:04;;;;;;;19.27;11.70;;;6.10;29.80;;;;;;5035238;28;20499;-60
2022/03/21 02:24:52;;;;;;;18.60;12.83;;;6.10;29.80;;;;;;5052784;28;20921;-59
2022/03/21 02:27:18;;;;;;;20.83;13.50;;;6.00;31.20;;;;;;5055924;28;20470;-60
2022/03/21 02:29:47;;;;;;;18.57;12.37;;;6.00;32.00;;;;;;5035214;28;20427;-60
2022/03/21 02:32:13;;;;;;;18.43;12.57;;;6.00;31.70;;;;;;5035441;28;20831;-65
2022/03/21 02:34:40;;;;;;;15.90;11.80;;;5.90;32.10;;;;;;5052959;28;20430;-65
2022/03/21 02:37:09;;;;;;;20.07;13.03;;;5.90;31.20;;;;;;5054813;28;20402;-60
2022/03/21 02:39:37;;;;;;;18.00;12.23;;;5.90;31.50;;;;;;5037474;28;20419;-60
2022/03/21 02:42:04;;;;;;;16.67;12.73;;;5.90;31.70;;;;;;5035510;28;20442;-64
2022/03/21 02:44:37;;;;;;;16.70;11.80;;;5.90;31.50;;;;;;5054308;28;20925;-65
2022/03/21 02:47:05;;;;;;;19.07;12.50;;;5.90;31.80;;;;;;5053779;28;20432;-60
2022/03/21 02:49:30;;;;;;;17.47;10.90;;;5.90;31.80;;;;;;5054601;28;20509;-63
2022/03/21 02:51:59;;;;;;;14.77;11.27;;;5.80;32.30;;;;;;5040523;28;20548;-59
2022/03/21 02:54:26;;;;;;;14.47;11.90;;;5.80;31.50;;;;;;5035353;28;20188;-65
2022/03/21 02:56:52;;;;;;;18.43;10.93;;;5.80;31.90;;;;;;5047564;28;20425;-60
2022/03/21 02:59:18;;;;;;;15.43;12.43;;;5.80;32.10;;;;;;5054293;28;20944;-65
2022/03/21 03:01:44;;;;;;;16.10;12.60;;;5.70;32.20;;;;;;5041719;28;20434;-62
2022/03/21 03:04:10;;;;;;;15.57;12.40;;;5.70;31.80;;;;;;5035190;28;20932;-64
2022/03/21 03:06:39;;;;;;;18.97;12.53;;;5.70;32.30;;;;;;5049762;28;20182;-60
2022/03/21 03:09:06;;;;;;;19.53;13.93;;;5.70;33.50;;;;;;5054196;28;20190;-65
2022/03/21 03:11:32;;;;;;;17.37;11.73;;;5.70;34.20;;;;;;5040440;28;20448;-60
2022/03/21 03:13:57;;;;;;;18.03;13.00;;;5.70;34.10;;;;;;5034665;28;20396;-60
2022/03/21 03:16:23;;;;;;;18.00;12.20;;;5.70;33.80;;;;;;5046845;28;20539;-65
2022/03/21 03:18:48;;;;;;;13.00;11.53;;;5.70;34.60;;;;;;5053846;28;20173;-64
2022/03/21 03:21:19;;;;;;;14.30;10.77;;;5.60;35.00;;;;;;5043678;28;20193;-65
2022/03/21 03:23:47;;;;;;;17.27;12.90;;;5.60;35.30;;;;;;5034912;28;20163;-60
2022/03/21 03:26:12;;;;;;;15.73;11.30;;;5.60;35.50;;;;;;5043970;28;20416;-64
2022/03/21 03:28:38;;;;;;;18.97;12.70;;;5.60;35.10;;;;;;5053671;28;20411;-65
2022/03/21 03:31:04;;;;;;;20.47;12.30;;;5.60;35.80;;;;;;5045510;28;20640;-64
2022/03/21 03:33:30;;;;;;;14.70;13.10;;;5.50;36.60;;;;;;5034831;28;20199;-59
2022/03/21 03:35:56;;;;;;;18.87;11.90;;;5.50;36.60;;;;;;5040034;28;20406;-60
2022/03/21 03:38:22;;;;;;;20.60;13.27;;;5.50;36.80;;;;;;5054156;28;20476;-64
2022/03/21 03:40:47;;;;;;;13.97;11.30;;;5.40;36.40;;;;;;5048839;28;20418;-59
2022/03/21 03:43:15;;;;;;;16.77;11.17;;;5.40;37.60;;;;;;5034715;28;20198;-60
2022/03/21 03:45:42;;;;;;;22.30;13.50;;;5.40;37.10;;;;;;5037216;28;20756;-59
2022/03/21 03:48:08;;;;;;;17.87;12.53;;;5.40;36.10;;;;;;5054063;28;20500;-59
2022/03/21 03:50:34;;;;;;;19.80;12.40;;;5.40;36.80;;;;;;5050869;28;20868;-64
2022/03/21 03:53:00;;;;;;;20.17;12.00;;;5.40;36.40;;;;;;5034134;28;20499;-64
2022/03/21 03:55:26;;;;;;;18.93;11.73;;;5.40;37.00;;;;;;5037368;28;20647;-62
2022/03/21 03:57:53;;;;;;;17.80;10.97;;;5.40;36.50;;;;;;5034291;28;20431;-65
2022/03/21 04:00:19;;;;;;;18.00;11.50;;;5.40;37.00;;;;;;5035915;28;20414;-65
2022/03/21 04:05:30;;;;;;;17.10;11.27;;;5.40;37.80;;;;;;5036945;28;20439;-65
2022/03/21 04:07:56;;;;;;;19.53;12.13;;;5.40;36.90;;;;;;5053693;28;20409;-63
2022/03/21 04:10:22;;;;;;;16.70;10.57;;;5.40;36.80;;;;;;5047301;28;20783;-64
2022/03/21 04:12:51;;;;;;;19.70;11.60;;;5.40;37.00;;;;;;5034578;28;20454;-64
2022/03/21 04:15:18;;;;;;;15.87;12.70;;;5.40;36.90;;;;;;5053781;28;20179;-60
2022/03/21 04:17:44;;;;;;;19.70;11.07;;;5.30;37.40;;;;;;5053611;28;20901;-60
2022/03/21 04:20:11;;;;;;;15.67;10.90;;;5.30;37.10;;;;;;5032622;28;20834;-65
2022/03/21 04:22:37;;;;;;;15.33;10.87;;;5.30;36.60;;;;;;5033862;28;20426;-64
2022/03/21 04:25:05;;;;;;;21.17;12.27;;;5.30;37.60;;;;;;5051979;28;20824;-60
2022/03/21 04:27:32;;;;;;;14.87;12.97;;;5.30;36.70;;;;;;5053168;28;20425;-60
2022/03/21 04:29:58;;;;;;;17.40;12.10;;;5.20;36.50;;;;;;5034686;28;20418;-64
2022/03/21 04:32:24;;;;;;;16.63;10.43;;;5.30;37.90;;;;;;5033823;28;20567;-64
2022/03/21 04:34:49;;;;;;;15.80;10.30;;;5.30;38.70;;;;;;5048854;28;20520;-64
2022/03/21 04:37:15;;;;;;;17.53;11.10;;;5.30;38.30;;;;;;5053516;28;20528;-62
2022/03/21 04:39:41;;;;;;;16.07;11.60;;;5.20;38.70;;;;;;5038306;28;20198;-63
2022/03/21 04:42:06;;;;;;;17.60;10.17;;;5.20;39.80;;;;;;5033364;28;20557;-59
2022/03/21 04:44:32;;;;;;;14.97;11.53;;;5.10;39.30;;;;;;5045310;28;20656;-64
2022/03/21 04:46:58;;;;;;;15.80;10.53;;;5.20;40.00;;;;;;5052469;28;20649;-59
2022/03/21 04:49:23;;;;;;;12.37;9.43;;;5.10;39.40;;;;;;5040930;28;20437;-64
2022/03/21 04:51:49;;;;;;;13.50;9.97;;;5.10;39.70;;;;;;5033250;28;20249;-60
2022/03/21 04:54:15;;;;;;;16.23;10.90;;;5.10;39.50;;;;;;5034608;28;20230;-65
2022/03/21 04:56:40;;;;;;;14.20;10.30;;;5.10;39.40;;;;;;5033713;28;20421;-62
2022/03/21 04:59:07;;;;;;;22.13;12.77;;;5.10;40.30;;;;;;5038160;28;20593;-65
2022/03/21 05:01:33;;;;;;;14.13;10.87;;;5.10;40.40;;;;;;5039184;28;20194;-64
2022/03/21 05:03:59;;;;;;;14.33;10.27;;;5.20;40.90;;;;;;5032953;28;20406;-60
2022/03/21 05:06:25;;;;;;;20.57;10.23;;;5.10;40.90;;;;;;5039959;28;20167;-59
2022/03/21 05:08:51;;;;;;;22.83;10.57;;;5.10;40.50;;;;;;5051884;28;20675;-59
2022/03/21 05:11:17;;;;;;;15.07;11.13;;;5.10;41.00;;;;;;5047076;28;20539;-60
2022/03/21 05:13:42;;;;;;;20.00;11.13;;;5.00;40.80;;;;;;5033185;28;20214;-60
2022/03/21 05:16:08;;;;;;;19.73;11.93;;;5.00;41.30;;;;;;5035959;28;20697;-66
2022/03/21 05:18:37;;;;;;;11.77;10.33;;;5.00;41.60;;;;;;5051003;28;20180;-60
2022/03/21 05:21:04;;;;;;;20.03;12.67;;;5.00;41.40;;;;;;5050612;28;20194;-65
2022/03/21 05:31:43;;;;;;;16.87;10.87;;;5.00;42.90;;;;;;5039619;28;20448;-61
2022/03/21 05:36:54;;;;;;;18.30;11.37;;;4.90;46.40;;;;;;5044773;28;20449;-65
2022/03/21 05:39:20;;;;;;;20.33;12.63;;;4.90;43.80;;;;;;5031888;28;20398;-66
2022/03/21 05:41:47;;;;;;;13.43;10.80;;;4.90;44.00;;;;;;5038798;28;20441;-62
2022/03/21 05:44:12;;;;;;;16.10;11.30;;;4.90;45.50;;;;;;5052385;28;20487;-63
2022/03/21 05:46:38;;;;;;;14.87;11.73;;;4.90;45.00;;;;;;5047424;28;20838;-65
2022/03/21 05:49:04;;;;;;;20.05;10.98;;;4.90;45.70;;;;;;5038393;28;20409;-67
2022/03/21 05:51:38;;;;;;;15.50;12.07;;;4.90;46.00;;;;;;5050899;28;20200;-61
2022/03/21 05:54:10;;;;;;;18.20;12.70;;;4.90;45.90;;;;;;5052834;28;20239;-62
2022/03/21 05:56:36;;;;;;;21.67;11.85;;;5.00;46.80;;;;;;5046971;28;21045;-63
2022/03/21 06:01:47;;;;;;;15.33;10.97;;;5.00;45.80;;;;;;5036373;28;20461;-68
2022/03/21 06:04:14;;;;;;;16.90;11.20;;;5.00;46.70;;;;;;5035844;28;20415;-60
2022/03/21 06:06:40;;;;;;;18.30;11.20;;;5.00;47.20;;;;;;5038921;28;20416;-66
2022/03/21 06:09:06;;;;;;;16.30;12.60;;;5.00;47.00;;;;;;5055330;28;20961;-67
2022/03/21 06:11:31;;;;;;;17.70;11.07;;;4.90;47.30;;;;;;5042708;28;20203;-62
2022/03/21 06:13:57;;;;;;;20.80;12.63;;;4.90;48.50;;;;;;5045312;28;20221;-69
2022/03/21 06:16:23;;;;;;;12.93;10.23;;;4.90;49.50;;;;;;5052736;28;20262;-60
2022/03/21 06:18:48;;;;;;;17.20;12.53;;;4.90;49.60;;;;;;5034904;28;20180;-61
2022/03/21 06:21:14;;;;;;;18.20;11.73;;;4.90;50.10;;;;;;5037177;28;20189;-67
2022/03/21 06:23:40;;;;;;;19.23;10.67;;;4.80;49.20;;;;;;5055443;28;20554;-68
2022/03/21 06:26:07;;;;;;;14.17;10.70;;;4.80;50.50;;;;;;5054742;28;20180;-69
2022/03/21 06:28:33;;;;;;;16.97;11.33;;;4.80;50.50;;;;;;5054578;28;20233;-69
2022/03/21 06:30:59;;;;;;;15.57;11.40;;;4.80;51.20;;;;;;5051859;28;20949;-64
2022/03/21 06:33:26;;;;;;;15.73;11.00;;;4.90;52.00;;;;;;5035484;28;20462;-69
2022/03/21 06:35:53;;;;;;;18.67;12.20;;;4.90;50.50;;;;;;5035983;28;20177;-60
2022/03/21 06:38:18;;;;;;;18.70;13.13;;;4.90;51.50;;;;;;5055578;28;20437;-66
2022/03/21 06:40:44;;;;;;;19.83;11.93;;;4.90;52.20;;;;;;5044182;28;20986;-66
2022/03/21 06:43:12;;;;;;;15.03;11.77;;;4.90;52.70;;;;;;5035123;28;20286;-60
2022/03/21 06:45:38;;;;;;;18.90;11.57;;;4.90;52.60;;;;;;5035325;28;20174;-62
2022/03/21 06:48:05;;;;;;;15.93;11.73;;;4.90;52.30;;;;;;5034676;28;20891;-66
2022/03/21 06:50:30;;;;;;;16.40;12.07;;;4.90;52.30;;;;;;5034517;28;20414;-65
2022/03/21 06:52:56;;;;;;;18.90;11.50;;;4.90;52.30;;;;;;5035147;28;20479;-64
2022/03/21 06:55:21;;;;;;;13.63;10.80;;;4.90;52.40;;;;;;5035605;28;20230;-67
2022/03/21 06:57:47;;;;;;;14.70;9.83;;;4.90;52.40;;;;;;5035060;28;20509;-68
2022/03/21 07:00:14;;;;;;;11.47;9.70;;;5.00;51.50;;;;;;5034401;28;20173;-68
2022/03/21 07:02:40;;;;;;;16.90;12.20;;;5.00;52.50;;;;;;5035222;28;20200;-68
2022/03/21 07:05:07;;;;;;;13.83;11.30;;;5.00;51.70;;;;;;5035409;28;20409;-62
2022/03/21 07:07:33;;;;;;;25.53;12.60;;;5.00;52.90;;;;;;5034930;28;20408;-63
2022/03/21 07:10:00;;;;;;;15.13;10.47;;;5.10;53.90;;;;;;5033180;28;20951;-65
2022/03/21 07:12:26;;;;;;;15.33;10.80;;;5.10;55.60;;;;;;5034892;28;20457;-68
2022/03/21 07:14:52;;;;;;;15.27;11.40;;;5.10;54.80;;;;;;5035071;28;20412;-63
2022/03/21 07:17:19;;;;;;;15.40;11.70;;;5.20;53.40;;;;;;5034567;28;20745;-63
2022/03/21 07:19:44;;;;;;;16.40;9.73;;;5.20;52.80;;;;;;5034264;28;20409;-63
2022/03/21 07:22:10;;;;;;;20.20;11.43;;;5.20;53.60;;;;;;5033798;28;20440;-62
2022/03/21 07:24:35;;;;;;;15.60;10.00;;;5.30;52.90;;;;;;5034353;28;20588;-63
2022/03/21 07:27:01;;;;;;;17.47;12.43;;;5.30;52.90;;;;;;5035129;28;20173;-66
2022/03/21 07:29:27;;;;;;;17.43;11.77;;;5.40;53.90;;;;;;5034063;28;20574;-66
2022/03/21 07:31:53;;;;;;;16.97;11.17;;;5.50;57.80;;;;;;5034603;28;20209;-59
2022/03/21 07:34:18;;;;;;;14.33;10.60;;;5.50;54.30;;;;;;5034360;28;20160;-66
2022/03/21 07:36:44;;;;;;;11.37;9.50;;;5.60;53.50;;;;;;5034520;28;20957;-61
2022/03/21 07:39:09;;;;;;;16.63;11.77;;;5.70;54.50;;;;;;5034245;28;20208;-66
2022/03/21 07:41:35;;;;;;;15.50;11.37;;;5.80;54.50;;;;;;5034118;28;20193;-68
2022/03/21 07:44:01;;;;;;;13.03;11.43;;;5.80;54.60;;;;;;5034415;28;20174;-63
2022/03/21 07:49:12;;;;;;;14.40;11.00;;;5.90;53.40;;;;;;5034061;28;20178;-66
2022/03/21 07:51:38;;;;;;;12.90;10.57;;;6.00;53.50;;;;;;5036195;28;20456;-62
2022/03/21 07:54:04;;;;;;;31.97;11.77;;;6.00;53.50;;;;;;5034436;28;20402;-61
2022/03/21 07:56:30;;;;;;;14.23;11.03;;;6.00;53.60;;;;;;5034233;28;20394;-65
2022/03/21 07:58:59;;;;;;;19.20;12.40;;;6.10;55.20;;;;;;5033109;28;20764;-66
2022/03/21 08:01:29;;;;;;;16.20;11.30;;;6.20;53.80;;;;;;5033789;28;20270;-60
2022/03/21 08:03:57;;;;;;;13.80;11.63;;;6.30;53.90;;;;;;5034113;28;20398;-61
2022/03/21 08:06:23;;;;;;;26.73;11.70;;;6.30;55.40;;;;;;5034166;28;20480;-61
2022/03/21 08:08:49;;;;;;;13.83;11.03;;;6.30;55.40;;;;;;5033253;28;20443;-60
2022/03/21 08:11:15;;;;;;;13.70;11.43;;;6.50;56.40;;;;;;5033475;28;20486;-66
2022/03/21 08:13:42;;;;;;;13.07;10.63;;;6.50;56.80;;;;;;5045283;28;21017;-60
2022/03/21 08:16:07;;;;;;;17.60;12.40;;;6.50;55.40;;;;;;5050425;28;20894;-66
2022/03/21 08:18:33;;;;;;;15.30;11.40;;;6.50;56.20;;;;;;5033106;28;20421;-60
2022/03/21 08:20:59;;;;;;;17.10;11.27;;;6.60;57.00;;;;;;5033666;28;20167;-60
2022/03/21 08:23:24;;;;;;;13.83;11.43;;;6.70;55.80;;;;;;5032492;28;20186;-65
2022/03/21 08:25:50;;;;;;;18.57;12.73;;;6.80;56.10;;;;;;5033695;28;20187;-61
2022/03/21 08:28:16;;;;;;;14.23;10.60;;;6.90;57.70;;;;;;5052456;28;20671;-67
2022/03/21 08:30:42;;;;;;;18.10;11.60;;;7.00;57.50;;;;;;5052821;28;20228;-68
2022/03/21 08:33:10;;;;;;;16.37;11.80;;;7.10;57.40;;;;;;5035286;28;20496;-61
2022/03/21 08:35:38;;;;;;;19.60;12.10;;;7.20;57.80;;;;;;5033392;28;20413;-63
2022/03/21 08:38:08;;;;;;;16.60;11.93;;;7.30;57.60;;;;;;5050172;28;20421;-63
2022/03/21 08:40:36;;;;;;;20.03;12.53;;;7.40;57.50;;;;;;5052760;28;20405;-63
2022/03/21 08:43:02;;;;;;;20.70;14.60;;;7.50;59.60;;;;;;5037374;28;20478;-67
2022/03/21 08:45:27;;;;;;;13.03;10.50;;;7.70;58.20;;;;;;5033673;28;20407;-68
2022/03/21 08:47:53;;;;;;;13.23;11.60;;;7.80;58.10;;;;;;5046907;28;20482;-68
2022/03/21 08:50:20;;;;;;;16.77;11.02;;;7.90;60.00;;;;;;5051933;28;20400;-69
2022/03/21 08:52:46;;;;;;;15.83;12.70;;;8.10;60.90;;;;;;5040075;28;20214;-64
2022/03/21 08:55:12;;;;;;;17.90;12.40;;;8.10;59.40;;;;;;5032940;28;20403;-62
2022/03/21 08:57:38;;;;;;;16.77;11.30;;;8.20;57.70;;;;;;5043543;28;20180;-64
2022/03/21 09:00:06;;;;;;;16.17;12.07;;;8.30;60.30;;;;;;5052368;28;20483;-69
2022/03/21 09:02:36;;;;;;;16.13;12.60;;;8.40;59.40;;;;;;5043483;28;20608;-67
2022/03/21 09:05:05;;;;;;;19.93;12.10;;;8.60;56.70;;;;;;5032866;28;20415;-66
2022/03/21 09:07:31;;;;;;;13.40;11.10;;;8.70;57.50;;;;;;5037808;28;20426;-69
2022/03/21 09:09:57;;;;;;;15.63;12.43;;;8.80;58.80;;;;;;5044130;28;20434;-63
2022/03/21 09:12:23;;;;;;;16.10;12.20;;;9.00;59.70;;;;;;5033224;28;20193;-63
2022/03/21 09:14:48;;;;;;;21.60;13.20;;;9.10;58.40;;;;;;5044960;28;20928;-63
2022/03/21 09:17:14;;;;;;;14.20;12.20;;;9.30;58.50;;;;;;5042165;28;20180;-69
2022/03/21 09:19:40;;;;;;;20.97;12.37;;;9.50;58.20;;;;;;5032203;28;20184;-63
2022/03/21 09:22:06;;;;;;;21.43;12.60;;;9.70;54.80;;;;;;5047346;28;20220;-63
2022/03/21 09:24:33;;;;;;;14.10;12.00;;;9.80;53.70;;;;;;5052341;28;20443;-66
2022/03/21 09:26:59;;;;;;;18.03;12.77;;;10.10;53.70;;;;;;5032961;28;20192;-69
2022/03/21 09:29:25;;;;;;;15.10;11.27;;;10.30;52.90;;;;;;5032137;28;20380;-68
2022/03/21 09:31:51;;;;;;;17.33;11.20;;;10.50;52.20;;;;;;5050597;28;20444;-68
2022/03/21 09:34:18;;;;;;;18.07;12.33;;;10.60;52.40;;;;;;5053640;28;20197;-69
2022/03/21 09:36:44;;;;;;;18.27;13.63;;;10.70;51.40;;;;;;5048622;28;20182;-69
2022/03/21 09:39:10;;;;;;;18.27;12.93;;;10.90;50.90;;;;;;5035617;28;20379;-69
2022/03/21 09:41:36;;;;;;;22.33;13.03;;;11.20;50.30;;;;;;5048324;28;20400;-68
2022/03/21 09:44:07;;;;;;;19.60;13.43;;;11.50;48.90;;;;;;5036403;28;20413;-69
2022/03/21 09:46:33;;;;;;;16.37;12.17;;;11.40;48.80;;;;;;5036261;28;20426;-64
2022/03/21 09:49:02;;;;;;;18.27;12.60;;;11.50;46.50;;;;;;5035557;28;20772;-64
2022/03/21 09:51:30;;;;;;;20.00;13.30;;;11.50;44.70;;;;;;5036135;28;20442;-64
2022/03/21 09:53:57;;;;;;;15.93;13.43;;;11.70;47.40;;;;;;5036612;28;20492;-69
2022/03/21 09:56:24;;;;;;;15.80;12.50;;;11.90;43.70;;;;;;5036365;28;20429;-69
2022/03/21 09:58:50;;;;;;;14.03;11.10;;;11.90;42.30;;;;;;5035727;28;20409;-64
2022/03/21 10:01:18;;;;;;;16.57;12.13;;;12.20;42.80;;;;;;5050452;28;20475;-69
2022/03/21 10:03:44;;;;;;;14.27;11.60;;;12.40;42.20;;;;;;5056133;28;20451;-65
2022/03/21 10:06:26;;;;;;;17.00;12.33;;;12.30;38.10;;;;;;5043369;28;20426;-64
2022/03/21 10:09:08;;;;;;;18.23;13.70;;;12.40;38.00;;;;;;5035353;28;20387;-69
2022/03/21 10:11:34;;;;;;;27.13;12.57;;;12.60;39.60;;;;;;5035905;28;20450;-63
2022/03/21 10:14:20;;;;;;;14.70;12.43;;;12.80;37.60;;;;;;5035907;28;20534;-64
2022/03/21 10:16:55;;;;;;;17.30;12.27;;;12.80;34.30;;;;;;5051972;28;20769;-70
2022/03/21 10:19:21;;;;;;;18.97;12.17;;;13.10;38.00;;;;;;5054834;28;20409;-69
2022/03/21 10:22:20;;;;;;;16.83;12.20;;;13.50;34.90;;;;;;5035511;28;20977;-65
2022/03/21 10:24:49;;;;;;;14.90;12.07;;;13.60;33.60;;;;;;5037347;28;20412;-69
2022/03/21 10:27:36;;;;;;;16.80;11.57;;;13.70;32.40;;;;;;5055999;28;20445;-63
2022/03/21 10:30:07;;;;;;;12.33;11.00;;;13.90;34.20;;;;;;5050698;28;20430;-67
2022/03/21 10:32:53;;;;;;;16.70;12.53;;;13.90;29.90;;;;;;5035346;28;20936;-69
2022/03/21 10:35:23;;;;;;;17.27;12.30;;;13.90;30.10;;;;;;5035813;28;20905;-64
2022/03/21 10:37:58;;;;;;;15.10;11.80;;;14.00;30.00;;;;;;5035052;28;20408;-65
2022/03/21 10:40:33;;;;;;;15.70;12.03;;;14.20;27.20;;;;;;5043892;28;20403;-65
2022/03/21 10:43:05;;;;;;;16.87;12.93;;;14.40;26.10;;;;;;5055472;28;20399;-70
2022/03/21 10:45:46;;;;;;;16.63;12.57;;;14.50;25.40;;;;;;5045164;28;20429;-69
2022/03/21 10:48:45;;;;;;;18.80;12.30;;;14.80;27.70;;;;;;5035654;28;20470;-64
2022/03/21 10:51:13;;;;;;;19.83;11.30;;;15.10;28.00;;;;;;5048624;28;20420;-67
2022/03/21 10:53:41;;;;;;;20.50;13.50;;;15.50;25.20;;;;;;5054227;28;20453;-71
2022/03/21 10:56:10;;;;;;;14.40;12.43;;;15.60;24.10;;;;;;5041210;28;20458;-69
2022/03/21 10:58:42;;;;;;;14.90;12.60;;;15.60;22.50;;;;;;5044528;28;20455;-71
2022/03/21 11:01:18;;;;;;;17.30;12.53;;;15.40;20.70;;;;;;5055314;28;20393;-63
2022/03/21 11:03:45;;;;;;;14.30;11.00;;;15.10;19.80;;;;;;5042709;28;20396;-64
2022/03/21 11:06:12;;;;;;;14.50;11.17;;;15.10;19.30;;;;;;5035165;28;20437;-66
2022/03/21 11:08:39;;;;;;;16.90;12.60;;;15.00;19.20;;;;;;5044984;28;20842;-64
2022/03/21 11:11:05;;;;;;;16.90;12.53;;;14.70;19.30;;;;;;5054636;28;20407;-70
2022/03/21 11:13:32;;;;;;;19.73;12.40;;;14.40;22.30;;;;;;5044947;28;21100;-65
2022/03/21 11:15:59;;;;;;;18.37;13.60;;;14.40;26.10;;;;;;5035073;28;20418;-63
2022/03/21 11:18:28;;;;;;;20.53;13.00;;;14.50;37.40;;;;;;5042179;28;20906;-70
2022/03/21 11:20:55;;;;;;;20.03;12.87;;;14.40;17.00;;;;;;5054424;28;20381;-68
2022/03/21 11:23:21;;;;;;;16.70;12.00;;;14.50;17.60;;;;;;5046635;28;20753;-67
2022/03/21 11:26:07;;;;;;;16.83;12.63;;;14.60;19.90;;;;;;5034916;28;20413;-64
2022/03/21 11:28:41;;;;;;;13.93;11.60;;;14.60;17.20;;;;;;5043239;28;20178;-68
2022/03/21 11:31:34;;;;;;;15.93;12.07;;;14.70;15.20;;;;;;5053598;28;20961;-68
2022/03/21 11:34:38;;;;;;;13.60;11.70;;;14.80;17.80;;;;;;5052757;28;20434;-63
2022/03/21 11:37:04;;;;;;;22.83;13.33;;;15.00;16.70;;;;;;5034680;28;20453;-69
2022/03/21 11:39:30;;;;;;;15.60;11.40;;;14.70;15.20;;;;;;5033801;28;20410;-68
2022/03/21 11:42:11;;;;;;;17.63;14.10;;;14.70;16.10;;;;;;5034700;28;20191;-69
2022/03/21 11:44:38;;;;;;;20.00;12.70;;;14.80;14.90;;;;;;5034336;28;20432;-64
2022/03/21 11:47:24;;;;;;;15.50;12.40;;;14.80;13.00;;;;;;5034231;28;20365;-69
2022/03/21 11:49:51;;;;;;;18.60;13.00;;;14.80;13.30;;;;;;5051133;28;20906;-65
2022/03/21 11:52:17;;;;;;;19.83;12.40;;;14.70;14.80;;;;;;5041592;28;20461;-63
2022/03/21 11:54:44;;;;;;;18.47;13.47;;;15.00;15.50;;;;;;5053583;28;20377;-67
2022/03/21 11:57:16;;;;;;;17.53;12.13;;;15.30;13.00;;;;;;5033556;28;20450;-64
2022/03/21 11:59:42;;;;;;;18.17;12.07;;;15.80;14.10;;;;;;5047708;28;20417;-64
2022/03/21 12:02:07;;;;;;;21.27;13.17;;;16.00;12.10;;;;;;5035305;28;20492;-69
2022/03/21 12:04:34;;;;;;;19.03;12.83;;;16.40;23.30;;;;;;5038760;28;20232;-64
2022/03/21 12:07:20;;;;;;;16.33;12.83;;;16.90;12.80;;;;;;5053661;28;20916;-63
2022/03/21 12:09:46;;;;;;;18.97;13.97;;;17.30;12.50;;;;;;5051745;28;20466;-64
2022/03/21 12:12:14;;;;;;;16.97;13.17;;;17.40;12.80;;;;;;5053872;28;20479;-67
2022/03/21 12:14:54;;;;;;;19.00;12.80;;;17.60;13.50;;;;;;5038430;28;20560;-69
2022/03/21 12:17:34;;;;;;;16.63;13.53;;;18.20;15.00;;;;;;5039199;28;20493;-68
2022/03/21 12:20:02;;;;;;;18.77;11.90;;;18.30;12.70;;;;;;5034335;28;20414;-69
2022/03/21 12:22:30;;;;;;;15.20;11.27;;;18.50;11.40;;;;;;5039994;28;20448;-69
2022/03/21 12:24:57;;;;;;;17.60;13.00;;;18.70;11.50;;;;;;5046210;28;20422;-64
2022/03/21 12:27:43;;;;;;;17.17;12.47;;;18.90;9.60;;;;;;5045481;28;20452;-70
2022/03/21 12:32:51;;;;;;;17.60;11.83;;;19.60;8.50;;;;;;5037332;28;20462;-67
2022/03/21 12:35:39;;;;;;;17.20;12.50;;;20.30;10.50;;;;;;5045547;28;20417;-70
2022/03/21 12:38:06;;;;;;;18.90;12.30;;;21.00;9.50;;;;;;5047736;28;20417;-65
2022/03/21 12:40:37;;;;;;;14.07;11.67;;;21.20;6.40;;;;;;5035675;28;20410;-65
2022/03/21 12:43:05;;;;;;;20.53;12.40;;;21.60;4.70;;;;;;5032928;28;20437;-64
2022/03/21 12:45:31;;;;;;;13.30;11.53;;;21.40;1.00;;;;;;5039446;28;20449;-68
2022/03/21 12:48:03;;;;;;;17.73;13.10;;;21.30;1.00;;;;;;5038028;28;20495;-64
2022/03/21 12:50:29;;;;;;;13.40;11.83;;;21.20;1.00;;;;;;5045105;28;20768;-68
2022/03/21 12:53:00;;;;;;;17.83;13.50;;;21.40;1.00;;;;;;5052692;28;20477;-68
2022/03/21 12:55:26;;;;;;;15.37;12.57;;;21.20;1.00;;;;;;5052013;28;20422;-65
2022/03/21 12:58:14;;;;;;;18.27;13.60;;;21.70;1.00;;;;;;5043093;28;20425;-69
2022/03/21 13:00:43;;;;;;;19.07;14.10;;;21.80;1.00;;;;;;5032235;28;20418;-69
2022/03/21 13:03:12;;;;;;;15.20;11.47;;;22.10;1.00;;;;;;5033102;28;20446;-64
2022/03/21 13:11:40;;;;;;;15.93;12.17;;;22.50;1.00;;;;;;5037520;28;20799;-67